Time;durP1;ratioP1;P1;durP2;ratioP2;P2;SDS_P1;SDS_P2;PMS_P1;PMS_P2;Temp;Humidity;BMP_temperature;BMP_pressure;BME280_temperature;BME280_humidity;BME280_pressure;Samples;Min_cycle;Max_cycle;Signal;HPM_P1;HPM_P2
2023/12/15 00:00:56;;;;;;;16.88;6.22;;;;;;;7.07;72.96;101517.19;10282972;28;20546;-63
2023/12/15 00:05:58;;;;;;;14.70;7.18;;;;;;;7.11;73.17;101528.47;10277567;28;20078;-63
2023/12/15 00:11:00;;;;;;;14.30;4.72;;;;;;;7.14;72.92;101528.22;10283672;28;20459;-61
2023/12/15 00:16:02;;;;;;;14.48;5.32;;;;;;;7.18;72.93;101535.00;10281173;28;20101;-63
2023/12/15 00:21:03;;;;;;;15.20;5.70;;;;;;;7.19;73.24;101547.41;10292315;28;20043;-63
2023/12/15 00:26:05;;;;;;;11.82;3.88;;;;;;;7.21;72.51;101556.16;10282751;28;20050;-62
2023/12/15 00:31:06;;;;;;;12.95;4.85;;;;;;;7.13;73.26;101569.31;10284467;28;20059;-63
2023/12/15 00:36:08;;;;;;;17.38;5.55;;;;;;;7.15;72.97;101572.72;10285430;28;20043;-62
2023/12/15 00:41:09;;;;;;;10.27;4.20;;;;;;;7.16;73.62;101585.09;10304923;28;20534;-63
2023/12/15 00:46:11;;;;;;;16.05;5.47;;;;;;;7.17;73.45;101586.81;10289064;28;20136;-61
2023/12/15 00:51:12;;;;;;;12.55;4.85;;;;;;;7.22;72.76;101583.75;10295102;28;20049;-61
2023/12/15 00:56:14;;;;;;;14.88;5.93;;;;;;;7.16;73.36;101595.78;10294002;28;20109;-61
2023/12/15 01:01:15;;;;;;;17.02;6.35;;;;;;;7.19;73.55;101600.91;10300880;28;20046;-62
2023/12/15 01:06:17;;;;;;;15.07;5.82;;;;;;;7.03;73.82;101603.94;10290919;28;20047;-61
2023/12/15 01:11:18;;;;;;;10.50;4.13;;;;;;;6.98;73.97;101614.13;10296654;28;20054;-61
2023/12/15 01:16:20;;;;;;;12.43;4.60;;;;;;;6.99;73.62;101614.97;10283114;28;20478;-61
2023/12/15 01:21:21;;;;;;;7.32;3.15;;;;;;;7.15;73.39;101619.00;10278197;28;20125;-61
2023/12/15 01:26:23;;;;;;;11.25;4.55;;;;;;;7.20;72.88;101623.97;10277984;28;20053;-60
2023/12/15 01:31:24;;;;;;;6.63;3.30;;;;;;;7.23;73.04;101621.06;10286503;28;20406;-60
2023/12/15 01:36:28;;;;;;;10.48;4.07;;;;;;;7.28;72.69;101624.22;10288262;28;20723;-60
2023/12/15 01:41:31;;;;;;;11.25;3.97;;;;;;;7.21;73.68;101646.22;10295957;28;20501;-61
2023/12/15 01:46:33;;;;;;;10.52;4.13;;;;;;;7.30;72.99;101650.84;10295730;28;20961;-61
2023/12/15 01:51:34;;;;;;;10.25;3.88;;;;;;;7.35;72.62;101652.19;10288170;28;20525;-60
2023/12/15 01:56:35;;;;;;;13.57;5.63;;;;;;;7.42;72.63;101651.69;10293469;28;20509;-63
2023/12/15 02:01:37;;;;;;;12.38;4.55;;;;;;;7.44;73.03;101653.25;10290925;28;20053;-62
2023/12/15 02:06:38;;;;;;;10.88;4.25;;;;;;;7.44;72.34;101663.09;10290022;28;20137;-62
2023/12/15 02:11:40;;;;;;;11.80;5.15;;;;;;;7.39;72.54;101666.16;10284748;28;20516;-63
2023/12/15 02:16:41;;;;;;;12.18;5.13;;;;;;;7.30;72.76;101665.06;10280994;28;20432;-63
2023/12/15 02:21:43;;;;;;;13.50;5.13;;;;;;;7.25;72.97;101674.44;10287364;28;20054;-61
2023/12/15 02:26:44;;;;;;;15.63;6.38;;;;;;;7.13;73.96;101684.28;10285733;28;20047;-62
2023/12/15 02:31:45;;;;;;;14.15;5.82;;;;;;;7.17;73.71;101688.41;10289230;23;20046;-62
2023/12/15 02:36:49;;;;;;;14.23;6.65;;;;;;;7.15;73.57;101679.66;10283680;28;20046;-63
2023/12/15 02:41:50;;;;;;;14.30;6.35;;;;;;;7.21;72.99;101678.31;10283225;28;20046;-62
2023/12/15 02:46:52;;;;;;;13.40;6.07;;;;;;;7.30;72.51;101682.94;10282286;28;20047;-62
2023/12/15 02:51:53;;;;;;;20.95;7.20;;;;;;;7.45;71.99;101691.56;10282089;28;20161;-61
2023/12/15 02:56:54;;;;;;;16.20;5.97;;;;;;;7.51;71.72;101704.47;10281737;28;20046;-63
2023/12/15 03:01:56;;;;;;;16.27;6.63;;;;;;;7.53;72.12;101711.38;10282758;28;20046;-62
2023/12/15 03:06:58;;;;;;;16.67;6.88;;;;;;;7.52;71.63;101712.38;10280534;28;20145;-63
2023/12/15 03:11:59;;;;;;;18.60;6.88;;;;;;;7.53;72.20;101719.41;10286487;28;20461;-63
2023/12/15 03:17:01;;;;;;;18.27;7.35;;;;;;;7.59;71.84;101711.88;10280347;28;20078;-63
2023/12/15 03:22:02;;;;;;;19.33;6.80;;;;;;;7.62;72.07;101711.63;10280339;28;20082;-63
2023/12/15 03:27:04;;;;;;;19.52;7.03;;;;;;;7.52;71.92;101716.84;10277963;28;20406;-63
2023/12/15 03:32:06;;;;;;;19.60;7.18;;;;;;;7.41;72.27;101722.22;10239848;28;23029;-62
2023/12/15 03:37:08;;;;;;;16.10;6.38;;;;;;;7.30;72.58;101737.28;10239233;28;20688;-63
2023/12/15 03:42:11;;;;;;;20.10;7.00;;;;;;;7.19;72.85;101747.97;10241424;28;20077;-62
2023/12/15 03:47:13;;;;;;;18.38;7.15;;;;;;;7.09;72.33;101747.84;10236614;28;20114;-63
2023/12/15 03:52:14;;;;;;;21.15;9.13;;;;;;;7.01;72.27;101739.56;10241059;28;20717;-63
2023/12/15 03:57:16;;;;;;;21.70;7.97;;;;;;;6.99;72.39;101735.28;10246805;28;20050;-62
2023/12/15 04:02:20;;;;;;;25.15;8.23;;;;;;;6.91;72.86;101743.88;10245369;28;20039;-63
2023/12/15 04:07:21;;;;;;;16.83;6.50;;;;;;;6.93;72.50;101741.94;10244904;28;20513;-63
2023/12/15 04:12:23;;;;;;;17.98;6.97;;;;;;;7.00;73.02;101750.38;10245516;28;20503;-61
2023/12/15 04:17:24;;;;;;;22.02;7.45;;;;;;;7.15;72.16;101759.88;10253705;28;20061;-59
2023/12/15 04:22:26;;;;;;;19.65;7.38;;;;;;;7.21;72.31;101761.19;10254924;28;20111;-59
2023/12/15 04:27:28;;;;;;;19.65;6.82;;;;;;;7.24;72.18;101767.19;10254190;28;20058;-59
2023/12/15 04:32:29;;;;;;;21.23;7.10;;;;;;;7.27;72.18;101777.66;10255360;28;20082;-60
2023/12/15 04:37:31;;;;;;;18.92;7.50;;;;;;;7.32;72.14;101780.78;10257481;28;20051;-58
2023/12/15 04:42:32;;;;;;;19.45;7.40;;;;;;;7.40;71.86;101788.22;10254205;28;20051;-58
2023/12/15 04:47:35;;;;;;;18.77;7.32;;;;;;;7.42;71.99;101790.78;10254644;28;20057;-59
2023/12/15 04:52:37;;;;;;;19.77;7.28;;;;;;;7.46;71.90;101800.28;10253067;28;20046;-60
2023/12/15 04:57:38;;;;;;;19.25;7.15;;;;;;;7.55;71.58;101808.44;10256812;28;20461;-58
2023/12/15 05:02:40;;;;;;;15.52;6.18;;;;;;;7.63;71.55;101817.69;10256411;28;20051;-59
2023/12/15 05:07:42;;;;;;;20.40;7.80;;;;;;;7.64;71.97;101825.63;10255662;28;20055;-59
2023/12/15 05:12:43;;;;;;;18.98;7.43;;;;;;;7.72;71.29;101814.28;10254898;28;20062;-59
2023/12/15 05:17:44;;;;;;;21.02;7.63;;;;;;;7.72;71.44;101828.53;10249702;28;20065;-59
2023/12/15 05:22:47;;;;;;;15.68;7.15;;;;;;;7.76;71.26;101826.47;10252375;28;20039;-60
2023/12/15 05:27:49;;;;;;;20.75;7.95;;;;;;;7.72;71.40;101844.59;10255787;23;20059;-61
2023/12/15 05:32:50;;;;;;;21.83;7.35;;;;;;;7.69;71.72;101836.78;10264412;28;20067;-62
2023/12/15 05:37:53;;;;;;;16.88;6.68;;;;;;;7.66;71.92;101849.56;10266900;28;20058;-61
2023/12/15 05:42:54;;;;;;;16.92;7.18;;;;;;;7.60;72.08;101855.38;10267178;28;20043;-62
2023/12/15 05:47:56;;;;;;;22.23;8.50;;;;;;;7.65;71.79;101855.91;10263795;28;20051;-62
2023/12/15 05:52:57;;;;;;;19.80;7.32;;;;;;;7.73;71.98;101883.75;10281581;28;20125;-62
2023/12/15 05:57:59;;;;;;;20.98;7.10;;;;;;;7.81;71.48;101880.47;10265059;28;20073;-62
2023/12/15 06:03:00;;;;;;;19.80;7.20;;;;;;;7.83;71.31;101889.25;10261631;28;20043;-61
2023/12/15 06:08:02;;;;;;;20.55;7.88;;;;;;;7.73;71.99;101886.44;10265618;28;20682;-61
2023/12/15 06:13:03;;;;;;;15.52;7.20;;;;;;;7.67;72.00;101891.41;10269541;28;20051;-61
2023/12/15 06:18:05;;;;;;;15.18;7.03;;;;;;;7.67;71.89;101891.41;10268404;28;20474;-62
2023/12/15 06:23:07;;;;;;;16.98;7.55;;;;;;;7.76;71.75;101896.06;10273457;28;20058;-61
2023/12/15 06:28:09;;;;;;;17.17;7.40;;;;;;;7.82;71.76;101886.69;10284319;23;20128;-61
2023/12/15 06:33:10;;;;;;;19.48;8.18;;;;;;;7.86;71.67;101893.50;10319876;28;20079;-63
2023/12/15 06:38:12;;;;;;;23.15;8.82;;;;;;;7.90;71.29;101895.00;10337219;28;20057;-59
2023/12/15 06:43:13;;;;;;;18.92;6.80;;;;;;;7.72;72.02;101891.91;10328336;28;20105;-60
2023/12/15 06:48:15;;;;;;;18.55;7.13;;;;;;;7.63;71.76;101892.63;10313538;28;20057;-60
2023/12/15 06:53:17;;;;;;;23.58;8.10;;;;;;;7.64;71.63;101900.56;10333162;28;20054;-60
2023/12/15 06:58:19;;;;;;;27.15;9.57;;;;;;;7.60;72.00;101900.88;10339214;28;20105;-60
2023/12/15 07:03:21;;;;;;;22.77;8.23;;;;;;;7.62;72.03;101906.97;10334779;28;20056;-59
2023/12/15 07:08:22;;;;;;;19.30;7.85;;;;;;;7.59;72.22;101910.75;10343023;28;20105;-59
2023/12/15 07:13:24;;;;;;;16.30;6.53;;;;;;;7.62;72.08;101928.38;10342099;28;20120;-58
2023/12/15 07:18:25;;;;;;;20.20;7.75;;;;;;;7.62;71.98;101934.59;10327424;28;20047;-61
2023/12/15 07:23:27;;;;;;;21.75;7.35;;;;;;;7.64;71.55;101940.69;10345636;28;20062;-60
2023/12/15 07:28:28;;;;;;;29.10;8.50;;;;;;;7.53;72.53;101954.03;10341199;28;20051;-61
2023/12/15 07:33:29;;;;;;;19.88;7.63;;;;;;;7.59;71.66;101964.25;10305307;28;20534;-62
2023/12/15 07:38:31;;;;;;;22.27;8.45;;;;;;;7.72;71.56;101964.16;10306231;28;20115;-62
2023/12/15 07:43:33;;;;;;;19.52;6.63;;;;;;;7.81;71.77;101973.34;10304037;28;20039;-60
2023/12/15 07:48:34;;;;;;;16.10;6.70;;;;;;;7.79;71.69;101989.50;10273124;28;20066;-64
2023/12/15 07:53:36;;;;;;;19.35;6.97;;;;;;;7.90;71.61;102002.09;10249016;28;20133;-64
2023/12/15 07:58:37;;;;;;;20.73;7.70;;;;;;;7.94;71.48;102019.63;10267922;28;20137;-64
2023/12/15 08:03:38;;;;;;;19.40;7.75;;;;;;;7.96;71.47;102023.03;10250169;28;20404;-64
2023/12/15 08:08:41;;;;;;;22.30;8.85;;;;;;;7.99;71.02;102029.97;10266598;28;20051;-64
2023/12/15 08:13:42;;;;;;;18.40;7.10;;;;;;;7.98;71.62;102036.28;10264985;28;20047;-64
2023/12/15 08:18:44;;;;;;;22.08;7.88;;;;;;;8.11;71.06;102032.53;10264755;28;20140;-64
2023/12/15 08:23:46;;;;;;;20.23;8.32;;;;;;;8.20;71.22;102014.06;10266312;28;20073;-64
2023/12/15 08:28:47;;;;;;;16.63;6.93;;;;;;;8.25;71.20;102025.28;10273765;28;20046;-67
2023/12/15 08:33:49;;;;;;;18.95;8.20;;;;;;;8.21;71.29;102018.44;10257583;28;20056;-66
2023/12/15 08:38:51;;;;;;;14.80;6.43;;;;;;;8.37;71.23;102018.94;10272855;28;20047;-64
2023/12/15 08:43:52;;;;;;;16.77;7.57;;;;;;;8.52;71.02;102024.97;10263009;28;20678;-64
2023/12/15 08:48:54;;;;;;;17.42;6.75;;;;;;;8.55;71.09;102040.81;10279213;28;20410;-64
2023/12/15 08:53:55;;;;;;;17.08;6.10;;;;;;;8.36;71.36;102054.78;10278856;28;20046;-67
2023/12/15 08:58:57;;;;;;;19.67;6.60;;;;;;;8.35;71.41;102055.72;10276306;28;20042;-66
2023/12/15 09:03:58;;;;;;;16.13;6.55;;;;;;;8.23;72.21;102056.69;10276429;28;20074;-66
2023/12/15 09:09:00;;;;;;;18.83;7.10;;;;;;;8.28;71.55;102065.22;10274628;28;20044;-66
2023/12/15 09:14:02;;;;;;;19.33;6.25;;;;;;;8.24;71.55;102085.19;10253807;28;20043;-66
2023/12/15 09:19:03;;;;;;;16.17;6.70;;;;;;;8.32;71.20;102080.94;10276236;28;20078;-66
2023/12/15 09:24:05;;;;;;;14.98;7.28;;;;;;;8.32;71.51;102085.47;10272381;28;20054;-61
2023/12/15 09:29:09;;;;;;;15.38;5.88;;;;;;;8.33;71.41;102108.59;10277089;28;20046;-59
2023/12/15 09:34:11;;;;;;;14.55;6.20;;;;;;;8.36;71.05;102121.75;10275841;28;20082;-60
2023/12/15 09:39:12;;;;;;;13.32;6.43;;;;;;;8.28;71.33;102119.66;10276466;28;20138;-60
2023/12/15 09:44:15;;;;;;;11.07;5.25;;;;;;;8.32;71.09;102121.13;10275707;28;20688;-59
2023/12/15 09:49:18;;;;;;;12.00;5.82;;;;;;;8.25;71.40;102138.63;10276202;28;20047;-60
2023/12/15 09:54:20;;;;;;;13.18;5.60;;;;;;;8.10;71.85;102146.03;10276261;28;20066;-59
2023/12/15 09:59:22;;;;;;;15.18;6.35;;;;;;;7.88;72.21;102148.59;10274180;28;20135;-60
2023/12/15 10:04:23;;;;;;;17.00;6.63;;;;;;;7.83;72.43;102162.31;10274287;28;20053;-58
2023/12/15 10:09:25;;;;;;;17.23;6.55;;;;;;;7.82;72.28;102159.75;10316536;28;20062;-58
2023/12/15 10:14:29;;;;;;;15.45;6.70;;;;;;;7.89;72.21;102169.88;10316155;28;20053;-58
2023/12/15 10:19:31;;;;;;;19.23;6.72;;;;;;;7.91;72.56;102173.31;10313281;28;20039;-58
2023/12/15 10:24:34;;;;;;;16.42;6.78;;;;;;;7.94;72.44;102178.44;10313398;28;20047;-59
2023/12/15 10:29:39;;;;;;;14.52;6.82;;;;;;;8.01;72.89;102189.56;10314112;28;20051;-59
2023/12/15 10:34:40;;;;;;;20.00;7.57;;;;;;;8.00;72.92;102195.91;10311453;28;20611;-58
2023/12/15 10:39:42;;;;;;;18.67;7.35;;;;;;;8.05;72.96;102191.03;10309397;28;20051;-59
2023/12/15 10:44:45;;;;;;;13.95;6.70;;;;;;;8.09;73.32;102203.22;10310748;28;20055;-59
2023/12/15 10:49:47;;;;;;;17.30;6.28;;;;;;;8.04;73.79;102201.88;10308839;28;20081;-59
2023/12/15 10:54:59;;;;;;;21.55;7.93;;;;;;;8.00;73.71;102200.38;10305590;28;20126;-59
2023/12/15 11:00:04;;;;;;;15.02;6.70;;;;;;;8.11;73.72;102203.13;10301455;28;20084;-59
2023/12/15 11:05:09;;;;;;;17.83;7.15;;;;;;;8.30;73.64;102205.28;10306331;28;20047;-59
2023/12/15 11:10:12;;;;;;;19.02;7.30;;;;;;;8.38;74.02;102218.13;10290346;28;20104;-60
2023/12/15 11:15:20;;;;;;;17.40;6.88;;;;;;;8.52;73.82;102221.47;10291954;28;20759;-62
2023/12/15 11:20:22;;;;;;;13.63;5.88;;;;;;;8.64;73.65;102208.13;10269992;28;20054;-59
2023/12/15 11:25:33;;;;;;;16.15;6.80;;;;;;;8.82;73.48;102190.59;10274888;28;20062;-60
2023/12/15 11:30:42;;;;;;;19.17;6.63;;;;;;;8.84;73.48;102202.06;10274194;28;20418;-60
2023/12/15 11:35:50;;;;;;;16.17;6.82;;;;;;;8.90;73.27;102198.06;10271820;28;20117;-60
2023/12/15 11:40:54;;;;;;;11.27;5.15;;;;;;;9.05;73.14;102193.34;10271101;28;20402;-60
2023/12/15 11:45:55;;;;;;;15.95;6.70;;;;;;;9.08;73.45;102193.06;10255429;28;20050;-61
2023/12/15 11:50:57;;;;;;;15.73;5.95;;;;;;;9.13;73.42;102183.69;10254131;28;20047;-61
2023/12/15 11:56:01;;;;;;;14.70;6.47;;;;;;;9.13;73.21;102190.91;10274649;28;20053;-60
2023/12/15 12:01:03;;;;;;;14.32;6.57;;;;;;;9.37;72.91;102193.47;10275659;28;20047;-60
2023/12/15 12:06:05;;;;;;;16.33;6.57;;;;;;;9.41;72.94;102197.59;10272640;28;20047;-60
2023/12/15 12:11:07;;;;;;;14.60;6.45;;;;;;;9.45;72.94;102187.47;10269654;28;20078;-60
2023/12/15 12:16:11;;;;;;;12.02;5.88;;;;;;;9.68;72.54;102194.53;10276833;28;20046;-60
2023/12/15 12:21:12;;;;;;;19.88;6.35;;;;;;;9.78;72.13;102199.16;10276517;28;20517;-61
2023/12/15 12:26:14;;;;;;;12.10;6.00;;;;;;;9.72;72.32;102204.03;10297406;28;20050;-60
2023/12/15 12:31:16;;;;;;;11.95;5.78;;;;;;;9.73;72.28;102210.25;10307549;28;20047;-59
2023/12/15 12:36:18;;;;;;;14.70;7.03;;;;;;;9.62;72.21;102211.13;10312873;28;20070;-58
2023/12/15 12:41:20;;;;;;;16.52;6.93;;;;;;;9.75;72.31;102213.66;10317050;28;20057;-59
2023/12/15 12:46:22;;;;;;;12.40;7.13;;;;;;;9.70;72.58;102219.44;10309288;28;20046;-59
2023/12/15 12:51:23;;;;;;;14.82;6.80;;;;;;;9.77;72.46;102222.47;10311757;28;20046;-57
2023/12/15 12:56:28;;;;;;;11.18;6.18;;;;;;;9.71;72.38;102239.91;10315828;28;20071;-58
2023/12/15 13:01:29;;;;;;;15.50;6.95;;;;;;;9.78;72.34;102239.44;10315139;28;20055;-58
2023/12/15 13:06:30;;;;;;;16.70;6.45;;;;;;;9.84;72.12;102239.78;10312725;28;20047;-59
2023/12/15 13:11:32;;;;;;;13.35;6.38;;;;;;;9.97;72.03;102242.31;10310426;28;20051;-58
2023/12/15 13:16:33;;;;;;;11.77;6.55;;;;;;;9.98;71.97;102248.56;10312620;28;20043;-58
2023/12/15 13:21:35;;;;;;;11.60;6.35;;;;;;;10.04;72.10;102253.44;10312123;28;20077;-57
2023/12/15 13:26:37;;;;;;;17.75;7.03;;;;;;;9.92;72.04;102253.44;10314724;28;20141;-58
2023/12/15 13:31:38;;;;;;;13.60;6.35;;;;;;;9.96;72.03;102261.28;10309520;28;20077;-59
2023/12/15 13:36:40;;;;;;;12.88;6.32;;;;;;;10.00;71.91;102247.47;10310630;28;20126;-59
2023/12/15 13:41:42;;;;;;;13.50;6.22;;;;;;;10.00;72.39;102247.47;10306977;28;20053;-59
2023/12/15 13:46:43;;;;;;;13.35;6.55;;;;;;;10.09;72.13;102257.47;10306011;28;20055;-57
2023/12/15 13:51:45;;;;;;;16.42;6.78;;;;;;;10.12;72.16;102272.47;10311402;28;20068;-58
2023/12/15 13:56:47;;;;;;;17.00;6.47;;;;;;;10.04;72.05;102274.94;10313489;28;20049;-58
2023/12/15 14:01:49;;;;;;;11.32;5.80;;;;;;;9.97;72.42;102279.94;10314296;28;20167;-59
2023/12/15 14:06:53;;;;;;;19.25;7.18;;;;;;;10.01;72.62;102278.72;10309606;28;20129;-57
2023/12/15 14:11:55;;;;;;;16.65;6.32;;;;;;;10.10;72.32;102272.59;10304470;28;20039;-59
2023/12/15 14:16:57;;;;;;;12.05;6.22;;;;;;;10.25;71.80;102275.03;10305555;28;20086;-58
2023/12/15 14:21:58;;;;;;;15.30;6.20;;;;;;;10.16;72.48;102278.47;10304535;28;20099;-58
2023/12/15 14:27:00;;;;;;;14.50;5.75;;;;;;;10.20;72.37;102280.75;10301239;28;20050;-57
2023/12/15 14:32:05;;;;;;;11.82;6.07;;;;;;;10.27;72.23;102283.81;10297913;28;20034;-58
2023/12/15 14:37:06;;;;;;;14.32;6.68;;;;;;;10.29;72.01;102263.03;10304661;28;20809;-58
2023/12/15 14:42:08;;;;;;;14.15;6.35;;;;;;;10.36;71.81;102258.88;10305091;28;20048;-58
2023/12/15 14:47:10;;;;;;;11.98;6.47;;;;;;;10.26;72.03;102250.69;10303551;28;20039;-58
2023/12/15 14:52:11;;;;;;;12.65;6.40;;;;;;;10.16;72.28;102265.03;10308303;28;20047;-58
2023/12/15 14:57:14;;;;;;;11.43;6.15;;;;;;;10.08;72.69;102284.44;10306179;28;20053;-59
2023/12/15 15:02:15;;;;;;;11.10;5.72;;;;;;;9.89;72.69;102295.81;10303717;28;20061;-58
2023/12/15 15:07:16;;;;;;;11.73;5.57;;;;;;;9.81;72.88;102327.81;10304394;28;20067;-59
2023/12/15 15:12:22;;;;;;;13.00;5.82;;;;;;;9.78;72.63;102330.75;10308861;28;20067;-59
2023/12/15 15:17:24;;;;;;;12.73;6.30;;;;;;;9.77;72.61;102332.56;10308638;28;20146;-59
2023/12/15 15:22:25;;;;;;;11.95;6.15;;;;;;;9.73;72.91;102318.56;10314512;28;20045;-60
2023/12/15 15:27:26;;;;;;;12.93;6.28;;;;;;;9.71;72.94;102309.75;10308880;28;20047;-58
2023/12/15 15:32:28;;;;;;;11.15;5.35;;;;;;;9.64;72.76;102324.66;10298494;28;20062;-59
2023/12/15 15:37:29;;;;;;;12.02;5.45;;;;;;;9.56;72.85;102337.81;10302194;28;20062;-58
2023/12/15 15:42:31;;;;;;;10.68;4.97;;;;;;;9.51;73.17;102346.22;10298433;28;20049;-59
2023/12/15 15:47:32;;;;;;;11.95;6.40;;;;;;;9.48;73.33;102351.84;10290198;28;20058;-59
2023/12/15 15:52:33;;;;;;;13.45;6.07;;;;;;;9.46;73.46;102364.53;10305741;28;20038;-60
2023/12/15 15:57:35;;;;;;;14.02;6.78;;;;;;;9.44;73.52;102370.97;10281046;28;20047;-58
2023/12/15 16:02:37;;;;;;;10.85;5.60;;;;;;;9.65;73.14;102358.56;10270883;28;20409;-58
2023/12/15 16:07:39;;;;;;;10.45;4.93;;;;;;;9.78;72.53;102349.56;10280394;28;20062;-59
2023/12/15 16:12:43;;;;;;;11.40;6.78;;;;;;;9.87;72.53;102364.94;10285805;28;20680;-57
2023/12/15 16:17:45;;;;;;;12.00;6.55;;;;;;;9.89;72.24;102377.28;10301909;28;20050;-58
2023/12/15 16:22:46;;;;;;;11.85;6.60;;;;;;;9.92;72.17;102400.34;10298112;28;20039;-57
2023/12/15 16:27:48;;;;;;;16.13;7.50;;;;;;;9.92;72.32;102414.63;10273029;28;20047;-58
2023/12/15 16:32:49;;;;;;;11.90;5.85;;;;;;;9.90;72.21;102411.22;10286628;28;20049;-59
2023/12/15 16:37:51;;;;;;;13.57;6.47;;;;;;;9.88;72.03;102421.22;10293826;28;20066;-59
2023/12/15 16:42:53;;;;;;;14.27;7.15;;;;;;;9.88;72.61;102429.28;10261521;28;20053;-59
2023/12/15 16:47:55;;;;;;;18.55;11.57;;;;;;;9.89;72.20;102432.81;10290057;28;20066;-59
2023/12/15 16:52:56;;;;;;;14.75;9.10;;;;;;;9.86;72.21;102433.94;10298503;28;20023;-59
2023/12/15 16:57:58;;;;;;;13.80;7.10;;;;;;;9.86;72.43;102435.75;10308653;28;20066;-59
2023/12/15 17:02:59;;;;;;;14.50;6.75;;;;;;;9.87;71.93;102442.84;10306388;28;20047;-59
2023/12/15 17:08:01;;;;;;;20.25;8.45;;;;;;;9.82;72.26;102427.09;10305984;28;20039;-59
2023/12/15 17:13:03;;;;;;;12.00;5.10;;;;;;;9.80;72.63;102442.47;10297791;28;20122;-59
2023/12/15 17:18:05;;;;;;;11.52;6.10;;;;;;;9.75;72.77;102446.47;10295119;28;20051;-58
2023/12/15 17:23:10;;;;;;;11.98;5.63;;;;;;;9.71;72.67;102473.56;10307450;28;20046;-59
2023/12/15 17:28:11;;;;;;;7.93;4.75;;;;;;;9.79;72.46;102474.81;10311026;28;20077;-59
2023/12/15 17:33:14;;;;;;;11.48;5.70;;;;;;;9.78;72.81;102470.44;10298204;28;20105;-58
2023/12/15 17:38:16;;;;;;;16.13;7.72;;;;;;;9.78;72.72;102484.72;10303121;28;20077;-58
2023/12/15 17:43:19;;;;;;;12.00;6.90;;;;;;;9.82;72.71;102474.59;10306175;28;20058;-58
2023/12/15 17:48:21;;;;;;;11.18;6.00;;;;;;;9.79;72.59;102472.97;10324870;28;20046;-58
2023/12/15 17:53:24;;;;;;;12.90;6.47;;;;;;;9.76;72.77;102483.13;10320503;28;20047;-58
2023/12/15 17:58:26;;;;;;;11.50;6.18;;;;;;;9.71;73.06;102465.50;10325610;28;20035;-58
2023/12/15 18:03:27;;;;;;;12.18;6.15;;;;;;;9.70;72.96;102463.81;10322772;28;20057;-58
2023/12/15 18:08:29;;;;;;;12.07;5.80;;;;;;;9.68;72.67;102459.53;10313061;28;20417;-58
2023/12/15 18:13:30;;;;;;;15.20;6.15;;;;;;;9.62;72.76;102451.94;10309910;28;20066;-58
2023/12/15 18:18:33;;;;;;;13.90;6.93;;;;;;;9.61;72.76;102448.38;10319924;28;20051;-58
2023/12/15 18:23:35;;;;;;;14.77;6.97;;;;;;;9.59;72.96;102462.91;10316773;28;20065;-59
2023/12/15 18:28:36;;;;;;;14.88;7.47;;;;;;;9.59;73.13;102479.03;10314188;28;20087;-58
2023/12/15 18:33:39;;;;;;;14.55;6.90;;;;;;;9.53;73.25;102462.41;10316207;28;20107;-59
2023/12/15 18:38:40;;;;;;;14.45;7.20;;;;;;;9.49;73.23;102471.66;10319056;28;20027;-59
2023/12/15 18:43:42;;;;;;;11.48;6.45;;;;;;;9.56;73.12;102495.34;10317472;28;20116;-59
2023/12/15 18:48:43;;;;;;;12.88;6.13;;;;;;;9.57;73.21;102505.13;10317917;28;20046;-59
2023/12/15 18:53:45;;;;;;;11.40;6.18;;;;;;;9.57;73.11;102503.31;10316262;28;20051;-60
2023/12/15 18:58:49;;;;;;;11.80;6.65;;;;;;;9.53;73.42;102518.78;10284352;28;20042;-59
2023/12/15 19:03:50;;;;;;;15.73;6.75;;;;;;;9.51;73.30;102523.41;10316028;28;20046;-59
2023/12/15 19:08:52;;;;;;;13.20;7.00;;;;;;;9.49;73.35;102535.25;10309038;28;20042;-58
2023/12/15 19:13:54;;;;;;;16.15;7.00;;;;;;;9.43;73.55;102533.03;10296532;28;20099;-59
2023/12/15 19:18:56;;;;;;;13.00;5.93;;;;;;;9.47;73.53;102527.28;10318777;28;20064;-59
2023/12/15 19:23:58;;;;;;;12.13;6.10;;;;;;;9.41;73.37;102518.84;10312550;28;20055;-58
2023/12/15 19:29:00;;;;;;;13.18;7.13;;;;;;;9.40;73.56;102517.13;10306139;28;20102;-59
2023/12/15 19:34:02;;;;;;;10.32;5.43;;;;;;;9.35;73.74;102503.22;10321904;28;20050;-58
2023/12/15 19:39:03;;;;;;;11.15;5.93;;;;;;;9.39;73.52;102508.22;10272407;28;20047;-59
2023/12/15 19:44:05;;;;;;;11.57;5.95;;;;;;;9.54;73.20;102508.91;10266154;28;20034;-59
2023/12/15 19:49:09;;;;;;;11.43;6.47;;;;;;;9.47;73.20;102531.81;10268543;28;20047;-59
2023/12/15 19:54:12;;;;;;;12.80;6.95;;;;;;;9.51;73.30;102538.66;10268087;28;20046;-59
2023/12/15 19:59:22;;;;;;;12.77;6.93;;;;;;;9.53;72.99;102542.94;10275536;28;20047;-59
2023/12/15 20:04:24;;;;;;;10.98;6.00;;;;;;;9.48;73.34;102544.28;10272617;28;20059;-59
2023/12/15 20:09:26;;;;;;;10.52;5.60;;;;;;;9.52;72.98;102552.00;10266858;28;20042;-60
2023/12/15 20:14:28;;;;;;;14.15;7.35;;;;;;;9.60;72.95;102551.41;10269728;28;20490;-59
2023/12/15 20:19:29;;;;;;;12.05;5.90;;;;;;;9.63;72.77;102548.47;10270752;28;20054;-59
2023/12/15 20:24:31;;;;;;;10.90;5.82;;;;;;;9.68;72.67;102567.81;10270766;28;20057;-59
2023/12/15 20:29:32;;;;;;;13.82;5.68;;;;;;;9.69;72.53;102548.00;10270790;28;20043;-59
2023/12/15 20:34:35;;;;;;;7.93;5.03;;;;;;;9.67;72.57;102584.03;10274091;28;20035;-59
2023/12/15 20:39:37;;;;;;;14.05;6.22;;;;;;;9.68;72.80;102596.50;10259733;28;20564;-59
2023/12/15 20:44:39;;;;;;;12.68;5.57;;;;;;;9.65;72.96;102588.66;10262566;28;20055;-59
2023/12/15 20:49:42;;;;;;;12.88;6.00;;;;;;;9.65;72.74;102616.34;10274643;28;20049;-60
2023/12/15 20:54:46;;;;;;;13.45;6.13;;;;;;;9.71;72.52;102607.84;10283354;28;20061;-60
2023/12/15 20:59:47;;;;;;;11.10;5.78;;;;;;;9.76;72.56;102585.19;10328380;28;20096;-59
2023/12/15 21:04:49;;;;;;;12.13;6.45;;;;;;;9.72;72.63;102584.56;10327624;28;20038;-60
2023/12/15 21:09:50;;;;;;;13.95;6.00;;;;;;;9.72;72.30;102588.09;10304427;28;20046;-60
2023/12/15 21:14:54;;;;;;;10.55;5.70;;;;;;;9.70;72.53;102600.78;10309672;28;20031;-60
2023/12/15 21:19:55;;;;;;;14.65;6.60;;;;;;;9.73;72.20;102613.97;10315675;28;20039;-59
2023/12/15 21:24:57;;;;;;;12.68;5.60;;;;;;;9.64;72.54;102616.50;10313156;28;20039;-60
2023/12/15 21:29:59;;;;;;;11.30;6.70;;;;;;;9.68;72.74;102628.72;10300559;28;20053;-60
2023/12/15 21:35:01;;;;;;;10.82;6.55;;;;;;;9.73;72.53;102640.84;10327095;28;20047;-59
2023/12/15 21:40:04;;;;;;;12.70;6.05;;;;;;;9.75;72.22;102656.81;10328655;28;20030;-60
2023/12/15 21:45:07;;;;;;;10.57;5.45;;;;;;;9.75;72.56;102647.91;10328419;28;20062;-59
2023/12/15 21:50:09;;;;;;;10.63;6.20;;;;;;;9.63;72.32;102623.66;10296152;28;20046;-60
2023/12/15 21:55:11;;;;;;;11.65;6.82;;;;;;;9.51;72.75;102600.41;10306238;28;20042;-60
2023/12/15 22:00:13;;;;;;;12.80;6.38;;;;;;;9.47;72.92;102615.88;10321986;28;20105;-59
2023/12/15 22:05:15;;;;;;;12.15;6.03;;;;;;;9.43;72.82;102638.56;10297924;28;20047;-58
2023/12/15 22:10:17;;;;;;;14.48;5.82;;;;;;;9.38;73.16;102613.91;10276144;28;20113;-58
2023/12/15 22:15:18;;;;;;;18.08;6.45;;;;;;;9.27;73.31;102611.97;10276029;28;20051;-58
2023/12/15 22:20:19;;;;;;;11.98;6.43;;;;;;;9.22;73.61;102622.22;10263334;28;20491;-59
2023/12/15 22:25:21;;;;;;;17.02;6.50;;;;;;;9.20;73.56;102632.19;10270784;28;20434;-59
2023/12/15 22:30:24;;;;;;;14.15;7.30;;;;;;;9.31;73.25;102634.09;10259594;28;20145;-59
2023/12/15 22:35:27;;;;;;;9.55;6.15;;;;;;;9.27;73.09;102628.09;10272222;28;20065;-58
2023/12/15 22:40:28;;;;;;;11.30;5.78;;;;;;;9.26;73.40;102637.13;10273046;28;20050;-59
2023/12/15 22:45:30;;;;;;;14.25;6.93;;;;;;;9.29;72.97;102626.16;10272216;28;20089;-58
2023/12/15 22:50:33;;;;;;;13.40;6.03;;;;;;;9.26;73.27;102637.13;10264078;28;20058;-58
2023/12/15 22:55:34;;;;;;;13.02;7.03;;;;;;;9.25;73.33;102646.13;10273649;28;20061;-55
2023/12/15 23:00:36;;;;;;;16.88;6.45;;;;;;;9.30;72.97;102649.34;10265839;28;20043;-55
2023/12/15 23:05:37;;;;;;;12.38;5.75;;;;;;;9.26;73.42;102660.41;10262671;28;20038;-58